Thunder radar more information blitzortung!


Rain radar more information rain snow radar


altri nostri siti meteo:

PomeziameteoStazione ufficiale di Pomezia

MeteopomeziaSito sulle condizioni meteo



Temperature massime estreme Inizio validita dal: 22-07-2019 09:00 Fino: 23-07-2019 20:59 Allerta per: Temperature massime estreme Livello: Giallo info button

Report METAR

   
LIMP - Parma
Dati ricevuti: 22-07-2019 17:50
Sereno  
Sereno  
   Vento: Oriente 3.7 km/h
Vento: Oriente 3.7 km/h
Temperatura: 33°C
Indice di Calore: 35°C
P.to Rugiada: 20°C
Umidita: 46%
Barometro: 1019 hPa
Visibilita: oltre 10 km
dettagli cloud: Sereno
LIMP 221550Z 08002KT CAVOK 33/20 Q1019
LIPE - Bologna
Dati ricevuti: 22-07-2019 18:50
Sereno  
Sereno  
   Vento: Variabile 5.6 km/h
Vento: Variabile 5.6 km/h
Temperatura: 33°C
Indice di Calore: 34°C
P.to Rugiada: 19°C
Umidita: 44%
Barometro: 1019 hPa
Visibilita: oltre 10 km
dettagli cloud: Sereno
LIPE 221650Z VRB03KT CAVOK 33/19 Q1019
LIPO - Brescia/Montichi
Dati ricevuti: 22-07-2019 17:50
DATI Obsoleti
Sereno  
Sereno  
   Vento: S 11.1 km/h
Vento: S 11.1 km/h
Temperatura: 33°C
Indice di Calore: 34°C
P.to Rugiada: 18°C
Umidita: 41%
Barometro: 1019 hPa
Visibilita: oltre 10 km
dettagli cloud: Sereno
LIPO 221550Z 20006KT CAVOK 33/18 Q1019
LIPF - Ferrara
Dati ricevuti: 22-07-2019 17:55
Sereno  
Sereno  
   Vento: Variabile calma
Vento: Variabile calma
Temperatura: 34°C
Indice di Calore: 37°C
P.to Rugiada: 21°C
Umidita: 47%
Barometro: 1019 hPa
Visibilita: oltre 10 km
dettagli cloud: Sereno
LIPF 221555Z /////KT CAVOK 34/21 Q1019
LIPL - Ghedi
Dati ricevuti: 22-07-2019 17:55
Parzialmente nuvoloso  
Parzialmente nuvoloso  
   Vento: SW 7.4 km/h
Vento: SW 7.4 km/h
Temperatura: 33°C
Indice di Calore: 38°C
P.to Rugiada: 23°C
Umidita: 56%
Barometro: 1019 hPa
Nuvole: Parzialmente nuvoloso
Visibilita: oltre 10 km
dettagli cloud: Parzialmente nuvoloso 4200 ft
LIPL 221555Z 22004KT 9999 SCT042 33/23 Q1019 RMK BKN VIS MIN 9999 WIND THR31 27005KT WIND THR13 24004KT BLU
LIVC - Monte Cimone
Dati ricevuti: 19-07-2019 14:55
DATI Obsoleti
Pioggia leggera, Nebbia  
Pioggia leggera, Nebbia  
   Vento: S 24.1 km/h
Vento: S 24.1 km/h
Temperatura: 12°C
P.to Rugiada: 10°C
Umidita: 88%
Barometro: 1026 hPa
Visibilita: 0 km
dettagli cloud: Coperto
LIVC 191255Z 20013KT 0200 -RA FG VV/// 12/10 Q1026 RMK MON INVIS VAL INVIS VIS MIN 0200
LIMS - Piacenza
Dati ricevuti: 22-07-2019 17:55
Sereno  
Sereno  
   Vento: Oriente 7.4 km/h
Vento: Oriente 7.4 km/h
Temperatura: 33°C
Indice di Calore: 39°C
P.to Rugiada: 24°C
Umidita: 59%
Barometro: 1019 hPa
Visibilita: oltre 10 km
dettagli cloud: Sereno
LIMS 221555Z 10004KT CAVOK 33/24 Q1019
LIMT - Passo della Cisa
Dati ricevuti: 13-04-2018 12:55
DATI Obsoleti
Nebbia  
Nebbia  
   Vento: S 14.8 km/h
Vento: S 14.8 km/h
Temperatura: 6°C
Temperatura Vento: 3°C
P.to Rugiada: 4°C
Umidita: 87%
Barometro: 1013 hPa
Visibilita: 0 km
dettagli cloud: Coperto
LIMT 131055Z 20008KT 0000 FG VV/// 06/04 Q1013 RMK MON INVIS VAL INVIS VIS MIN 0000
LIPU - Padova
Dati ricevuti: 21-07-2019 08:00
DATI Obsoleti
Nebbia, Parzialmente nuvoloso  
Nebbia, Parzialmente nuvoloso  
   Vento: Variabile 5.6 km/h
Vento: Variabile 5.6 km/h
Temperatura: 24°C
P.to Rugiada: 22°C
Umidita: 89%
Barometro: 1019 hPa
Nuvole: Parzialmente nuvoloso
Visibilita: 4 km
dettagli cloud: Parzialmente nuvoloso
LIPU 210600Z VRB03KT 4000 BR NSC 24/22 Q1019

Script sviluppato da  Saratoga-weather.org Adattato per il modello da  Weerstation Leuven

Strumentazione usata:

Stazione meteo
Davis VP2

Programma gestore dati meteo
WVIEW

Server per i dati meteo
Pc-WDS5

Davis VP2

WVIEW

Pc-WDS5